sensor_id;sensor_type;location;lat;lon;timestamp;temperature;humidity
24686;DHT22;12804;51.176;4.452;2022-07-29T00:00:04;19.90;99.90
24686;DHT22;12804;51.176;4.452;2022-07-29T00:02:30;19.90;99.90
24686;DHT22;12804;51.176;4.452;2022-07-29T00:04:58;20.00;99.90
24686;DHT22;12804;51.176;4.452;2022-07-29T00:07:24;19.90;99.90
24686;DHT22;12804;51.176;4.452;2022-07-29T00:09:50;19.90;99.90
24686;DHT22;12804;51.176;4.452;2022-07-29T00:12:16;19.90;99.90
24686;DHT22;12804;51.176;4.452;2022-07-29T00:14:42;19.80;99.90
24686;DHT22;12804;51.176;4.452;2022-07-29T00:17:08;19.80;99.90
24686;DHT22;12804;51.176;4.452;2022-07-29T00:19:33;19.70;99.90
24686;DHT22;12804;51.176;4.452;2022-07-29T00:22:00;19.70;99.90
24686;DHT22;12804;51.176;4.452;2022-07-29T00:24:26;19.70;99.90
24686;DHT22;12804;51.176;4.452;2022-07-29T00:26:52;19.70;99.90
24686;DHT22;12804;51.176;4.452;2022-07-29T00:29:18;19.70;99.90
24686;DHT22;12804;51.176;4.452;2022-07-29T00:31:43;19.70;99.90
24686;DHT22;12804;51.176;4.452;2022-07-29T00:34:09;19.60;99.90
24686;DHT22;12804;51.176;4.452;2022-07-29T00:36:55;19.50;99.90
24686;DHT22;12804;51.176;4.452;2022-07-29T00:39:21;19.50;99.90
24686;DHT22;12804;51.176;4.452;2022-07-29T00:41:47;19.50;99.90
24686;DHT22;12804;51.176;4.452;2022-07-29T00:44:13;19.50;99.90
24686;DHT22;12804;51.176;4.452;2022-07-29T00:46:38;19.50;99.90
24686;DHT22;12804;51.176;4.452;2022-07-29T00:49:04;19.40;99.90
24686;DHT22;12804;51.176;4.452;2022-07-29T00:51:30;19.50;99.90
24686;DHT22;12804;51.176;4.452;2022-07-29T00:53:57;19.50;99.90
24686;DHT22;12804;51.176;4.452;2022-07-29T00:56:22;19.40;99.90
24686;DHT22;12804;51.176;4.452;2022-07-29T00:58:50;19.40;99.90
24686;DHT22;12804;51.176;4.452;2022-07-29T01:01:16;19.30;99.90
24686;DHT22;12804;51.176;4.452;2022-07-29T01:03:43;19.30;99.90
24686;DHT22;12804;51.176;4.452;2022-07-29T01:06:09;19.40;99.90
24686;DHT22;12804;51.176;4.452;2022-07-29T01:08:35;19.40;99.90
24686;DHT22;12804;51.176;4.452;2022-07-29T01:11:02;19.50;99.90
24686;DHT22;12804;51.176;4.452;2022-07-29T01:13:30;19.50;99.90
24686;DHT22;12804;51.176;4.452;2022-07-29T01:16:24;19.50;99.90
24686;DHT22;12804;51.176;4.452;2022-07-29T01:18:56;19.50;99.90
24686;DHT22;12804;51.176;4.452;2022-07-29T01:21:43;19.50;99.90
24686;DHT22;12804;51.176;4.452;2022-07-29T01:27:11;19.50;99.90
24686;DHT22;12804;51.176;4.452;2022-07-29T01:29:44;19.40;99.90
24686;DHT22;12804;51.176;4.452;2022-07-29T01:32:14;19.50;99.90
24686;DHT22;12804;51.176;4.452;2022-07-29T01:35:03;19.40;99.90
24686;DHT22;12804;51.176;4.452;2022-07-29T01:42:55;19.40;99.90
24686;DHT22;12804;51.176;4.452;2022-07-29T01:45:45;19.40;99.90
24686;DHT22;12804;51.176;4.452;2022-07-29T01:48:19;19.40;99.90
24686;DHT22;12804;51.176;4.452;2022-07-29T01:50:53;19.30;99.90
24686;DHT22;12804;51.176;4.452;2022-07-29T01:56:26;19.20;99.90
24686;DHT22;12804;51.176;4.452;2022-07-29T01:58:56;19.10;99.90
24686;DHT22;12804;51.176;4.452;2022-07-29T02:01:23;19.00;99.90
24686;DHT22;12804;51.176;4.452;2022-07-29T02:03:50;19.00;99.90
24686;DHT22;12804;51.176;4.452;2022-07-29T02:06:19;18.90;99.90
24686;DHT22;12804;51.176;4.452;2022-07-29T02:08:47;18.90;99.90
24686;DHT22;12804;51.176;4.452;2022-07-29T02:11:13;18.90;99.90
24686;DHT22;12804;51.176;4.452;2022-07-29T02:13:40;18.80;99.90
24686;DHT22;12804;51.176;4.452;2022-07-29T02:16:08;18.80;99.90
24686;DHT22;12804;51.176;4.452;2022-07-29T02:18:36;18.70;99.90
24686;DHT22;12804;51.176;4.452;2022-07-29T02:21:03;18.70;99.90
24686;DHT22;12804;51.176;4.452;2022-07-29T02:23:30;18.60;99.90
24686;DHT22;12804;51.176;4.452;2022-07-29T02:25:57;18.60;99.90
24686;DHT22;12804;51.176;4.452;2022-07-29T02:28:26;18.50;99.90
24686;DHT22;12804;51.176;4.452;2022-07-29T02:30:58;18.50;99.90
24686;DHT22;12804;51.176;4.452;2022-07-29T02:33:25;18.50;99.90
24686;DHT22;12804;51.176;4.452;2022-07-29T02:35:52;18.40;99.90
24686;DHT22;12804;51.176;4.452;2022-07-29T02:38:20;18.40;99.90
24686;DHT22;12804;51.176;4.452;2022-07-29T02:41:11;18.40;99.90
24686;DHT22;12804;51.176;4.452;2022-07-29T02:43:40;18.30;99.90
24686;DHT22;12804;51.176;4.452;2022-07-29T02:46:13;18.20;99.90
24686;DHT22;12804;51.176;4.452;2022-07-29T02:48:51;18.30;99.90
24686;DHT22;12804;51.176;4.452;2022-07-29T02:51:25;18.20;99.90
24686;DHT22;12804;51.176;4.452;2022-07-29T02:53:54;18.20;99.90
24686;DHT22;12804;51.176;4.452;2022-07-29T02:56:25;18.20;99.90
24686;DHT22;12804;51.176;4.452;2022-07-29T02:59:02;18.10;99.90
24686;DHT22;12804;51.176;4.452;2022-07-29T03:01:31;18.20;99.90
24686;DHT22;12804;51.176;4.452;2022-07-29T03:04:01;18.20;99.90
24686;DHT22;12804;51.176;4.452;2022-07-29T03:06:28;18.10;99.90
24686;DHT22;12804;51.176;4.452;2022-07-29T03:08:57;18.20;99.90
24686;DHT22;12804;51.176;4.452;2022-07-29T03:11:24;18.20;99.90
24686;DHT22;12804;51.176;4.452;2022-07-29T03:13:51;18.00;99.90
24686;DHT22;12804;51.176;4.452;2022-07-29T03:16:19;18.00;99.90
24686;DHT22;12804;51.176;4.452;2022-07-29T03:18:45;18.00;99.90
24686;DHT22;12804;51.176;4.452;2022-07-29T03:21:11;17.90;99.90
24686;DHT22;12804;51.176;4.452;2022-07-29T03:23:43;17.90;99.90
24686;DHT22;12804;51.176;4.452;2022-07-29T03:26:10;17.80;99.90
24686;DHT22;12804;51.176;4.452;2022-07-29T03:28:36;17.80;99.90
24686;DHT22;12804;51.176;4.452;2022-07-29T03:31:01;17.70;99.90
24686;DHT22;12804;51.176;4.452;2022-07-29T03:33:27;17.60;99.90
24686;DHT22;12804;51.176;4.452;2022-07-29T03:35:54;17.70;99.90
24686;DHT22;12804;51.176;4.452;2022-07-29T03:38:23;17.60;99.90
24686;DHT22;12804;51.176;4.452;2022-07-29T03:40:54;17.50;99.90
24686;DHT22;12804;51.176;4.452;2022-07-29T03:43:21;17.50;99.90
24686;DHT22;12804;51.176;4.452;2022-07-29T03:45:51;17.50;99.90
24686;DHT22;12804;51.176;4.452;2022-07-29T03:48:21;17.50;99.90
24686;DHT22;12804;51.176;4.452;2022-07-29T03:50:48;17.50;99.90
24686;DHT22;12804;51.176;4.452;2022-07-29T03:53:14;17.40;99.90
24686;DHT22;12804;51.176;4.452;2022-07-29T03:55:43;17.30;99.90
24686;DHT22;12804;51.176;4.452;2022-07-29T03:58:11;17.30;99.90
24686;DHT22;12804;51.176;4.452;2022-07-29T04:00:38;17.30;99.90
24686;DHT22;12804;51.176;4.452;2022-07-29T04:03:05;17.30;99.90
24686;DHT22;12804;51.176;4.452;2022-07-29T04:05:31;17.30;99.90
24686;DHT22;12804;51.176;4.452;2022-07-29T04:07:56;17.30;99.90
24686;DHT22;12804;51.176;4.452;2022-07-29T04:10:22;17.30;99.90
24686;DHT22;12804;51.176;4.452;2022-07-29T04:12:51;17.20;99.90
24686;DHT22;12804;51.176;4.452;2022-07-29T04:15:16;17.30;99.90
24686;DHT22;12804;51.176;4.452;2022-07-29T04:17:42;17.20;99.90
24686;DHT22;12804;51.176;4.452;2022-07-29T04:20:09;17.20;99.90
24686;DHT22;12804;51.176;4.452;2022-07-29T04:22:35;17.20;99.90
24686;DHT22;12804;51.176;4.452;2022-07-29T04:25:00;17.20;99.90
24686;DHT22;12804;51.176;4.452;2022-07-29T04:27:26;17.20;99.90
24686;DHT22;12804;51.176;4.452;2022-07-29T04:29:52;17.20;99.90
24686;DHT22;12804;51.176;4.452;2022-07-29T04:32:18;17.20;99.90
24686;DHT22;12804;51.176;4.452;2022-07-29T04:34:43;17.20;99.90
24686;DHT22;12804;51.176;4.452;2022-07-29T04:37:12;17.20;99.90
24686;DHT22;12804;51.176;4.452;2022-07-29T04:39:38;17.20;99.90
24686;DHT22;12804;51.176;4.452;2022-07-29T04:42:04;17.20;99.90
24686;DHT22;12804;51.176;4.452;2022-07-29T04:44:29;17.20;99.90
24686;DHT22;12804;51.176;4.452;2022-07-29T04:46:56;17.20;99.90
24686;DHT22;12804;51.176;4.452;2022-07-29T04:49:22;17.20;99.90
24686;DHT22;12804;51.176;4.452;2022-07-29T04:51:48;17.20;99.90
24686;DHT22;12804;51.176;4.452;2022-07-29T04:54:13;17.20;99.90
24686;DHT22;12804;51.176;4.452;2022-07-29T04:56:39;17.30;99.90
24686;DHT22;12804;51.176;4.452;2022-07-29T04:59:05;17.30;99.90
24686;DHT22;12804;51.176;4.452;2022-07-29T05:01:31;17.30;99.90
24686;DHT22;12804;51.176;4.452;2022-07-29T05:03:56;17.50;99.90
24686;DHT22;12804;51.176;4.452;2022-07-29T05:06:22;17.50;99.90
24686;DHT22;12804;51.176;4.452;2022-07-29T05:08:48;17.60;99.90
24686;DHT22;12804;51.176;4.452;2022-07-29T05:11:13;17.70;99.90
24686;DHT22;12804;51.176;4.452;2022-07-29T05:13:40;17.80;99.90
24686;DHT22;12804;51.176;4.452;2022-07-29T05:16:06;17.80;99.90
24686;DHT22;12804;51.176;4.452;2022-07-29T05:18:33;17.80;99.90
24686;DHT22;12804;51.176;4.452;2022-07-29T05:20:58;17.90;99.90
24686;DHT22;12804;51.176;4.452;2022-07-29T05:23:24;17.80;99.90
24686;DHT22;12804;51.176;4.452;2022-07-29T05:25:50;17.70;99.90
24686;DHT22;12804;51.176;4.452;2022-07-29T05:28:16;17.70;99.90
24686;DHT22;12804;51.176;4.452;2022-07-29T05:30:42;17.70;99.90
24686;DHT22;12804;51.176;4.452;2022-07-29T05:33:10;17.70;99.90
24686;DHT22;12804;51.176;4.452;2022-07-29T05:35:36;17.70;99.90
24686;DHT22;12804;51.176;4.452;2022-07-29T05:38:03;17.70;99.90
24686;DHT22;12804;51.176;4.452;2022-07-29T05:40:29;17.80;99.90
24686;DHT22;12804;51.176;4.452;2022-07-29T05:42:55;17.90;99.90
24686;DHT22;12804;51.176;4.452;2022-07-29T05:45:21;18.00;99.90
24686;DHT22;12804;51.176;4.452;2022-07-29T05:47:48;18.20;99.90
24686;DHT22;12804;51.176;4.452;2022-07-29T05:50:14;18.50;99.90
24686;DHT22;12804;51.176;4.452;2022-07-29T05:52:40;18.50;99.90
24686;DHT22;12804;51.176;4.452;2022-07-29T05:55:06;18.60;99.90
24686;DHT22;12804;51.176;4.452;2022-07-29T05:57:32;18.60;99.90
24686;DHT22;12804;51.176;4.452;2022-07-29T05:59:58;18.50;99.90
24686;DHT22;12804;51.176;4.452;2022-07-29T06:02:25;18.60;99.90
24686;DHT22;12804;51.176;4.452;2022-07-29T06:04:51;18.70;99.90
24686;DHT22;12804;51.176;4.452;2022-07-29T06:07:16;18.80;99.90
24686;DHT22;12804;51.176;4.452;2022-07-29T06:09:42;18.90;99.90
24686;DHT22;12804;51.176;4.452;2022-07-29T06:12:08;19.00;99.90
24686;DHT22;12804;51.176;4.452;2022-07-29T06:14:35;19.10;99.90
24686;DHT22;12804;51.176;4.452;2022-07-29T06:17:01;19.30;99.90
24686;DHT22;12804;51.176;4.452;2022-07-29T06:19:27;19.40;99.90
24686;DHT22;12804;51.176;4.452;2022-07-29T06:21:53;19.50;99.90
24686;DHT22;12804;51.176;4.452;2022-07-29T06:24:19;19.50;99.90
24686;DHT22;12804;51.176;4.452;2022-07-29T06:26:44;19.50;99.90
24686;DHT22;12804;51.176;4.452;2022-07-29T06:29:11;19.50;99.90
24686;DHT22;12804;51.176;4.452;2022-07-29T06:31:39;19.40;99.90
24686;DHT22;12804;51.176;4.452;2022-07-29T06:34:05;19.30;99.90
24686;DHT22;12804;51.176;4.452;2022-07-29T06:36:34;19.50;99.90
24686;DHT22;12804;51.176;4.452;2022-07-29T06:39:00;19.50;99.90
24686;DHT22;12804;51.176;4.452;2022-07-29T06:41:26;19.40;99.90
24686;DHT22;12804;51.176;4.452;2022-07-29T06:43:52;19.30;99.90
24686;DHT22;12804;51.176;4.452;2022-07-29T06:46:19;19.20;99.90
24686;DHT22;12804;51.176;4.452;2022-07-29T06:48:46;19.20;99.90
24686;DHT22;12804;51.176;4.452;2022-07-29T06:51:13;19.10;99.90
24686;DHT22;12804;51.176;4.452;2022-07-29T06:53:39;19.20;99.90
24686;DHT22;12804;51.176;4.452;2022-07-29T06:56:06;19.30;99.90
24686;DHT22;12804;51.176;4.452;2022-07-29T06:58:34;19.40;99.90
24686;DHT22;12804;51.176;4.452;2022-07-29T07:01:04;19.40;99.90
24686;DHT22;12804;51.176;4.452;2022-07-29T07:03:31;19.60;99.90
24686;DHT22;12804;51.176;4.452;2022-07-29T07:05:57;19.60;99.90
24686;DHT22;12804;51.176;4.452;2022-07-29T07:08:23;19.70;99.90
24686;DHT22;12804;51.176;4.452;2022-07-29T07:10:50;19.70;99.90
24686;DHT22;12804;51.176;4.452;2022-07-29T07:13:16;19.80;99.90
24686;DHT22;12804;51.176;4.452;2022-07-29T07:15:43;19.80;99.90
24686;DHT22;12804;51.176;4.452;2022-07-29T07:18:09;19.90;99.90
24686;DHT22;12804;51.176;4.452;2022-07-29T07:20:35;20.00;99.90
24686;DHT22;12804;51.176;4.452;2022-07-29T07:23:01;20.10;99.90
24686;DHT22;12804;51.176;4.452;2022-07-29T07:25:27;20.20;99.90
24686;DHT22;12804;51.176;4.452;2022-07-29T07:27:53;20.30;99.90
24686;DHT22;12804;51.176;4.452;2022-07-29T07:30:18;20.20;99.90
24686;DHT22;12804;51.176;4.452;2022-07-29T07:32:44;20.30;99.90
24686;DHT22;12804;51.176;4.452;2022-07-29T07:35:10;20.40;99.90
24686;DHT22;12804;51.176;4.452;2022-07-29T07:37:37;20.50;99.90
24686;DHT22;12804;51.176;4.452;2022-07-29T07:40:04;20.60;99.90
24686;DHT22;12804;51.176;4.452;2022-07-29T07:42:30;20.50;99.90
24686;DHT22;12804;51.176;4.452;2022-07-29T07:44:56;20.40;99.90
24686;DHT22;12804;51.176;4.452;2022-07-29T07:47:22;20.50;99.90
24686;DHT22;12804;51.176;4.452;2022-07-29T07:49:50;20.60;99.90
24686;DHT22;12804;51.176;4.452;2022-07-29T07:52:16;20.60;99.90
24686;DHT22;12804;51.176;4.452;2022-07-29T07:54:43;20.60;99.90
24686;DHT22;12804;51.176;4.452;2022-07-29T07:57:10;20.70;99.90
24686;DHT22;12804;51.176;4.452;2022-07-29T07:59:37;20.80;99.90
24686;DHT22;12804;51.176;4.452;2022-07-29T08:02:03;20.90;99.90
24686;DHT22;12804;51.176;4.452;2022-07-29T08:04:29;21.00;99.90
24686;DHT22;12804;51.176;4.452;2022-07-29T08:06:56;21.20;99.90
24686;DHT22;12804;51.176;4.452;2022-07-29T08:09:22;21.40;99.90
24686;DHT22;12804;51.176;4.452;2022-07-29T08:11:48;21.40;99.90
24686;DHT22;12804;51.176;4.452;2022-07-29T08:14:14;21.40;99.90
24686;DHT22;12804;51.176;4.452;2022-07-29T08:16:40;21.50;99.90
24686;DHT22;12804;51.176;4.452;2022-07-29T08:19:07;21.60;99.90
24686;DHT22;12804;51.176;4.452;2022-07-29T08:21:33;21.70;99.90
24686;DHT22;12804;51.176;4.452;2022-07-29T08:23:59;21.80;99.90
24686;DHT22;12804;51.176;4.452;2022-07-29T08:26:44;21.90;99.90
24686;DHT22;12804;51.176;4.452;2022-07-29T08:29:09;22.10;99.90
24686;DHT22;12804;51.176;4.452;2022-07-29T08:31:36;22.30;99.90
24686;DHT22;12804;51.176;4.452;2022-07-29T08:34:03;22.30;99.90
24686;DHT22;12804;51.176;4.452;2022-07-29T08:36:29;22.40;99.90
24686;DHT22;12804;51.176;4.452;2022-07-29T08:38:55;22.40;99.90
24686;DHT22;12804;51.176;4.452;2022-07-29T08:41:21;22.50;99.90
24686;DHT22;12804;51.176;4.452;2022-07-29T08:43:48;22.70;99.90
24686;DHT22;12804;51.176;4.452;2022-07-29T08:46:15;22.90;99.90
24686;DHT22;12804;51.176;4.452;2022-07-29T08:48:42;23.00;99.90
24686;DHT22;12804;51.176;4.452;2022-07-29T08:51:13;23.10;99.90
24686;DHT22;12804;51.176;4.452;2022-07-29T08:53:42;23.20;99.90
24686;DHT22;12804;51.176;4.452;2022-07-29T08:56:12;23.20;99.90
24686;DHT22;12804;51.176;4.452;2022-07-29T08:58:39;23.20;99.90
24686;DHT22;12804;51.176;4.452;2022-07-29T09:01:07;23.20;99.90
24686;DHT22;12804;51.176;4.452;2022-07-29T09:03:35;23.30;99.90
24686;DHT22;12804;51.176;4.452;2022-07-29T09:06:02;23.60;99.90
24686;DHT22;12804;51.176;4.452;2022-07-29T09:08:31;23.50;99.90
24686;DHT22;12804;51.176;4.452;2022-07-29T09:10:57;23.50;99.90
24686;DHT22;12804;51.176;4.452;2022-07-29T09:13:24;23.60;99.90
24686;DHT22;12804;51.176;4.452;2022-07-29T09:15:50;23.60;99.90
24686;DHT22;12804;51.176;4.452;2022-07-29T09:18:40;23.70;99.90
24686;DHT22;12804;51.176;4.452;2022-07-29T09:21:08;23.60;99.90
24686;DHT22;12804;51.176;4.452;2022-07-29T09:24:10;23.70;99.90
24686;DHT22;12804;51.176;4.452;2022-07-29T09:26:45;23.80;99.90
24686;DHT22;12804;51.176;4.452;2022-07-29T09:29:16;24.00;99.90
24686;DHT22;12804;51.176;4.452;2022-07-29T09:31:50;24.10;99.90
24686;DHT22;12804;51.176;4.452;2022-07-29T09:34:27;24.20;99.90
24686;DHT22;12804;51.176;4.452;2022-07-29T09:36:54;24.30;99.90
24686;DHT22;12804;51.176;4.452;2022-07-29T09:39:31;24.30;99.90
24686;DHT22;12804;51.176;4.452;2022-07-29T09:42:01;24.20;99.90
24686;DHT22;12804;51.176;4.452;2022-07-29T09:44:44;24.30;99.90
24686;DHT22;12804;51.176;4.452;2022-07-29T09:47:10;24.60;99.90
24686;DHT22;12804;51.176;4.452;2022-07-29T09:49:58;24.50;99.90
24686;DHT22;12804;51.176;4.452;2022-07-29T09:52:26;24.50;99.90
24686;DHT22;12804;51.176;4.452;2022-07-29T09:54:52;24.60;99.90
24686;DHT22;12804;51.176;4.452;2022-07-29T09:57:25;24.80;99.90
24686;DHT22;12804;51.176;4.452;2022-07-29T10:00:06;24.90;99.90
24686;DHT22;12804;51.176;4.452;2022-07-29T10:02:39;25.00;99.90
24686;DHT22;12804;51.176;4.452;2022-07-29T10:05:20;24.90;99.90
24686;DHT22;12804;51.176;4.452;2022-07-29T10:07:53;25.10;99.90
24686;DHT22;12804;51.176;4.452;2022-07-29T10:10:27;25.10;99.90
24686;DHT22;12804;51.176;4.452;2022-07-29T10:12:56;25.20;99.90
24686;DHT22;12804;51.176;4.452;2022-07-29T10:15:24;25.40;99.90
24686;DHT22;12804;51.176;4.452;2022-07-29T10:17:51;25.60;99.90
24686;DHT22;12804;51.176;4.452;2022-07-29T10:20:17;25.20;99.90
24686;DHT22;12804;51.176;4.452;2022-07-29T10:22:43;25.10;99.90
24686;DHT22;12804;51.176;4.452;2022-07-29T10:25:10;25.40;99.90
24686;DHT22;12804;51.176;4.452;2022-07-29T10:27:36;25.50;99.90
24686;DHT22;12804;51.176;4.452;2022-07-29T10:30:03;25.70;99.90
24686;DHT22;12804;51.176;4.452;2022-07-29T10:32:49;26.00;99.90
24686;DHT22;12804;51.176;4.452;2022-07-29T10:38:10;25.90;99.90
24686;DHT22;12804;51.176;4.452;2022-07-29T10:40:45;26.00;99.90
24686;DHT22;12804;51.176;4.452;2022-07-29T10:43:37;26.10;99.90
24686;DHT22;12804;51.176;4.452;2022-07-29T10:46:06;26.40;99.90
24686;DHT22;12804;51.176;4.452;2022-07-29T10:48:33;26.60;99.90
24686;DHT22;12804;51.176;4.452;2022-07-29T10:51:01;26.80;99.90
24686;DHT22;12804;51.176;4.452;2022-07-29T10:53:51;26.90;99.90
24686;DHT22;12804;51.176;4.452;2022-07-29T10:56:30;26.90;99.90
24686;DHT22;12804;51.176;4.452;2022-07-29T11:01:48;27.20;99.90
24686;DHT22;12804;51.176;4.452;2022-07-29T11:07:11;28.20;99.90
24686;DHT22;12804;51.176;4.452;2022-07-29T11:09:38;30.00;99.90
24686;DHT22;12804;51.176;4.452;2022-07-29T11:15:10;32.40;95.10
24686;DHT22;12804;51.176;4.452;2022-07-29T11:20:44;33.70;86.90
24686;DHT22;12804;51.176;4.452;2022-07-29T11:29:21;33.90;76.90
24686;DHT22;12804;51.176;4.452;2022-07-29T11:31:52;34.90;72.00
24686;DHT22;12804;51.176;4.452;2022-07-29T11:39:38;36.10;61.60
24686;DHT22;12804;51.176;4.452;2022-07-29T11:45:05;34.40;63.30
24686;DHT22;12804;51.176;4.452;2022-07-29T11:47:33;34.60;63.10
24686;DHT22;12804;51.176;4.452;2022-07-29T11:50:01;34.50;61.90
24686;DHT22;12804;51.176;4.452;2022-07-29T11:52:35;34.40;63.60
24686;DHT22;12804;51.176;4.452;2022-07-29T11:55:05;34.20;62.40
24686;DHT22;12804;51.176;4.452;2022-07-29T11:57:33;34.80;61.80
24686;DHT22;12804;51.176;4.452;2022-07-29T12:00:00;36.10;59.40
24686;DHT22;12804;51.176;4.452;2022-07-29T12:02:41;36.60;57.70
24686;DHT22;12804;51.176;4.452;2022-07-29T12:05:08;36.40;57.80
24686;DHT22;12804;51.176;4.452;2022-07-29T12:07:35;36.70;56.70
24686;DHT22;12804;51.176;4.452;2022-07-29T12:10:04;37.50;55.80
24686;DHT22;12804;51.176;4.452;2022-07-29T12:12:30;37.90;54.20
24686;DHT22;12804;51.176;4.452;2022-07-29T12:14:56;37.30;54.70
24686;DHT22;12804;51.176;4.452;2022-07-29T12:17:48;37.60;54.60
24686;DHT22;12804;51.176;4.452;2022-07-29T12:20:22;38.00;54.30
24686;DHT22;12804;51.176;4.452;2022-07-29T12:22:48;38.80;52.20
24686;DHT22;12804;51.176;4.452;2022-07-29T12:25:14;37.50;53.40
24686;DHT22;12804;51.176;4.452;2022-07-29T12:27:42;37.70;52.90
24686;DHT22;12804;51.176;4.452;2022-07-29T12:30:11;36.90;54.50
24686;DHT22;12804;51.176;4.452;2022-07-29T12:32:43;36.90;55.60
24686;DHT22;12804;51.176;4.452;2022-07-29T12:35:14;37.80;53.10
24686;DHT22;12804;51.176;4.452;2022-07-29T12:37:43;38.50;50.40
24686;DHT22;12804;51.176;4.452;2022-07-29T12:40:12;38.00;50.70
24686;DHT22;12804;51.176;4.452;2022-07-29T12:42:39;38.60;50.30
24686;DHT22;12804;51.176;4.452;2022-07-29T12:45:05;36.70;51.50
24686;DHT22;12804;51.176;4.452;2022-07-29T12:47:31;36.80;51.00
24686;DHT22;12804;51.176;4.452;2022-07-29T12:50:12;37.00;51.10
24686;DHT22;12804;51.176;4.452;2022-07-29T12:52:40;38.00;49.40
24686;DHT22;12804;51.176;4.452;2022-07-29T12:55:06;36.10;51.60
24686;DHT22;12804;51.176;4.452;2022-07-29T12:57:43;37.10;50.50
24686;DHT22;12804;51.176;4.452;2022-07-29T13:00:12;37.00;49.80
24686;DHT22;12804;51.176;4.452;2022-07-29T13:02:39;37.70;49.20
24686;DHT22;12804;51.176;4.452;2022-07-29T13:05:07;38.10;47.70
24686;DHT22;12804;51.176;4.452;2022-07-29T13:07:34;38.50;46.60
24686;DHT22;12804;51.176;4.452;2022-07-29T13:10:15;39.10;46.60
24686;DHT22;12804;51.176;4.452;2022-07-29T13:13:01;39.80;46.30
24686;DHT22;12804;51.176;4.452;2022-07-29T13:15:27;40.10;45.20
24686;DHT22;12804;51.176;4.452;2022-07-29T13:17:53;39.70;45.10
24686;DHT22;12804;51.176;4.452;2022-07-29T13:20:24;39.30;44.70
24686;DHT22;12804;51.176;4.452;2022-07-29T13:22:50;39.60;45.20
24686;DHT22;12804;51.176;4.452;2022-07-29T13:25:33;38.90;44.70
24686;DHT22;12804;51.176;4.452;2022-07-29T13:27:59;39.10;44.80
24686;DHT22;12804;51.176;4.452;2022-07-29T13:30:25;39.50;44.00
24686;DHT22;12804;51.176;4.452;2022-07-29T13:32:52;40.50;43.70
24686;DHT22;12804;51.176;4.452;2022-07-29T13:35:18;40.60;42.30
24686;DHT22;12804;51.176;4.452;2022-07-29T13:37:44;40.10;42.00
24686;DHT22;12804;51.176;4.452;2022-07-29T13:40:11;40.80;42.90
24686;DHT22;12804;51.176;4.452;2022-07-29T13:42:37;40.90;42.00
24686;DHT22;12804;51.176;4.452;2022-07-29T13:45:04;39.40;43.20
24686;DHT22;12804;51.176;4.452;2022-07-29T13:47:32;39.90;43.30
24686;DHT22;12804;51.176;4.452;2022-07-29T13:49:57;40.60;42.50
24686;DHT22;12804;51.176;4.452;2022-07-29T13:52:23;40.50;42.70
24686;DHT22;12804;51.176;4.452;2022-07-29T13:54:49;39.80;43.10
24686;DHT22;12804;51.176;4.452;2022-07-29T13:57:16;40.10;42.50
24686;DHT22;12804;51.176;4.452;2022-07-29T13:59:42;40.90;42.40
24686;DHT22;12804;51.176;4.452;2022-07-29T14:02:10;40.90;41.10
24686;DHT22;12804;51.176;4.452;2022-07-29T14:04:36;40.80;41.40
24686;DHT22;12804;51.176;4.452;2022-07-29T14:07:02;40.50;41.00
24686;DHT22;12804;51.176;4.452;2022-07-29T14:09:28;41.60;40.40
24686;DHT22;12804;51.176;4.452;2022-07-29T14:11:54;41.90;41.20
24686;DHT22;12804;51.176;4.452;2022-07-29T14:14:20;42.60;39.20
24686;DHT22;12804;51.176;4.452;2022-07-29T14:16:46;42.30;39.20
24686;DHT22;12804;51.176;4.452;2022-07-29T14:19:12;42.90;39.00
24686;DHT22;12804;51.176;4.452;2022-07-29T14:21:38;43.70;38.20
24686;DHT22;12804;51.176;4.452;2022-07-29T14:24:05;44.00;37.20
24686;DHT22;12804;51.176;4.452;2022-07-29T14:26:31;43.90;37.40
24686;DHT22;12804;51.176;4.452;2022-07-29T14:28:57;42.80;37.10
24686;DHT22;12804;51.176;4.452;2022-07-29T14:31:23;41.90;38.60
24686;DHT22;12804;51.176;4.452;2022-07-29T14:33:49;42.00;38.50
24686;DHT22;12804;51.176;4.452;2022-07-29T14:36:14;42.40;38.30
24686;DHT22;12804;51.176;4.452;2022-07-29T14:38:40;42.50;38.40
24686;DHT22;12804;51.176;4.452;2022-07-29T14:41:07;42.70;38.60
24686;DHT22;12804;51.176;4.452;2022-07-29T14:43:34;43.20;38.10
24686;DHT22;12804;51.176;4.452;2022-07-29T14:46:00;43.60;37.50
24686;DHT22;12804;51.176;4.452;2022-07-29T14:48:26;43.80;36.50
24686;DHT22;12804;51.176;4.452;2022-07-29T14:50:52;41.60;38.50
24686;DHT22;12804;51.176;4.452;2022-07-29T14:53:18;41.90;39.40
24686;DHT22;12804;51.176;4.452;2022-07-29T14:55:44;42.90;38.30
24686;DHT22;12804;51.176;4.452;2022-07-29T14:58:10;43.30;37.30
24686;DHT22;12804;51.176;4.452;2022-07-29T15:00:36;43.10;37.80
24686;DHT22;12804;51.176;4.452;2022-07-29T15:03:03;43.70;36.70
24686;DHT22;12804;51.176;4.452;2022-07-29T15:05:30;44.40;36.20
24686;DHT22;12804;51.176;4.452;2022-07-29T15:07:56;45.30;35.40
24686;DHT22;12804;51.176;4.452;2022-07-29T15:10:23;45.50;35.60
24686;DHT22;12804;51.176;4.452;2022-07-29T15:12:48;45.30;35.30
24686;DHT22;12804;51.176;4.452;2022-07-29T15:15:14;45.10;35.20
24686;DHT22;12804;51.176;4.452;2022-07-29T15:17:40;45.50;35.10
24686;DHT22;12804;51.176;4.452;2022-07-29T15:20:06;45.70;34.60
24686;DHT22;12804;51.176;4.452;2022-07-29T15:22:32;45.40;35.10
24686;DHT22;12804;51.176;4.452;2022-07-29T15:24:58;45.30;35.10
24686;DHT22;12804;51.176;4.452;2022-07-29T15:27:23;45.80;34.50
24686;DHT22;12804;51.176;4.452;2022-07-29T15:29:49;46.00;35.10
24686;DHT22;12804;51.176;4.452;2022-07-29T15:32:15;46.10;34.50
24686;DHT22;12804;51.176;4.452;2022-07-29T15:34:41;45.70;34.20
24686;DHT22;12804;51.176;4.452;2022-07-29T15:37:07;45.40;33.60
24686;DHT22;12804;51.176;4.452;2022-07-29T15:39:33;44.50;34.00
24686;DHT22;12804;51.176;4.452;2022-07-29T15:41:58;44.20;34.20
24686;DHT22;12804;51.176;4.452;2022-07-29T15:44:25;44.60;34.50
24686;DHT22;12804;51.176;4.452;2022-07-29T15:46:51;45.00;34.40
24686;DHT22;12804;51.176;4.452;2022-07-29T15:49:36;43.80;35.10
24686;DHT22;12804;51.176;4.452;2022-07-29T15:52:04;44.10;34.80
24686;DHT22;12804;51.176;4.452;2022-07-29T15:54:34;44.50;34.60
24686;DHT22;12804;51.176;4.452;2022-07-29T15:57:00;44.50;34.80
24686;DHT22;12804;51.176;4.452;2022-07-29T15:59:26;44.80;34.80
24686;DHT22;12804;51.176;4.452;2022-07-29T16:01:52;45.00;34.60
24686;DHT22;12804;51.176;4.452;2022-07-29T16:04:19;44.70;33.80
24686;DHT22;12804;51.176;4.452;2022-07-29T16:06:46;43.20;35.10
24686;DHT22;12804;51.176;4.452;2022-07-29T16:09:12;43.00;35.90
24686;DHT22;12804;51.176;4.452;2022-07-29T16:11:39;42.80;36.30
24686;DHT22;12804;51.176;4.452;2022-07-29T16:14:05;43.70;36.50
24686;DHT22;12804;51.176;4.452;2022-07-29T16:16:31;44.20;36.00